sensor_id;sensor_type;location;lat;lon;timestamp;P1;durP1;ratioP1;P2;durP2;ratioP2
35188;SDS011;21762;54.480;18.556;2023-01-13T00:00:34;6.90;;;3.15;;
35188;SDS011;21762;54.480;18.556;2023-01-13T00:03:04;7.47;;;4.10;;
35188;SDS011;21762;54.480;18.556;2023-01-13T00:05:33;6.15;;;3.22;;
35188;SDS011;21762;54.480;18.556;2023-01-13T00:08:01;6.10;;;3.10;;
35188;SDS011;21762;54.480;18.556;2023-01-13T00:10:33;2.83;;;2.53;;
35188;SDS011;21762;54.480;18.556;2023-01-13T00:13:02;7.10;;;2.78;;
35188;SDS011;21762;54.480;18.556;2023-01-13T00:15:35;3.80;;;2.42;;
35188;SDS011;21762;54.480;18.556;2023-01-13T00:18:03;6.47;;;2.08;;
35188;SDS011;21762;54.480;18.556;2023-01-13T00:20:32;6.28;;;2.67;;
35188;SDS011;21762;54.480;18.556;2023-01-13T00:23:00;2.88;;;2.05;;
35188;SDS011;21762;54.480;18.556;2023-01-13T00:25:30;5.32;;;2.53;;
35188;SDS011;21762;54.480;18.556;2023-01-13T00:28:00;4.05;;;2.50;;
35188;SDS011;21762;54.480;18.556;2023-01-13T00:30:28;4.30;;;2.63;;
35188;SDS011;21762;54.480;18.556;2023-01-13T00:32:57;5.82;;;2.25;;
35188;SDS011;21762;54.480;18.556;2023-01-13T00:35:25;4.43;;;2.45;;
35188;SDS011;21762;54.480;18.556;2023-01-13T00:37:54;8.15;;;3.50;;
35188;SDS011;21762;54.480;18.556;2023-01-13T00:40:22;6.65;;;2.72;;
35188;SDS011;21762;54.480;18.556;2023-01-13T00:42:51;3.85;;;2.53;;
35188;SDS011;21762;54.480;18.556;2023-01-13T00:45:38;5.70;;;2.47;;
35188;SDS011;21762;54.480;18.556;2023-01-13T00:48:06;4.90;;;2.65;;
35188;SDS011;21762;54.480;18.556;2023-01-13T00:50:35;4.85;;;2.53;;
35188;SDS011;21762;54.480;18.556;2023-01-13T00:53:03;4.35;;;2.28;;
35188;SDS011;21762;54.480;18.556;2023-01-13T00:55:32;4.80;;;2.65;;
35188;SDS011;21762;54.480;18.556;2023-01-13T00:58:00;4.25;;;2.50;;
35188;SDS011;21762;54.480;18.556;2023-01-13T01:00:30;6.43;;;3.00;;
35188;SDS011;21762;54.480;18.556;2023-01-13T01:03:00;4.55;;;2.85;;
35188;SDS011;21762;54.480;18.556;2023-01-13T01:05:28;3.75;;;2.13;;
35188;SDS011;21762;54.480;18.556;2023-01-13T01:07:57;6.10;;;2.70;;
35188;SDS011;21762;54.480;18.556;2023-01-13T01:10:25;4.68;;;2.25;;
35188;SDS011;21762;54.480;18.556;2023-01-13T01:12:55;5.65;;;2.92;;
35188;SDS011;21762;54.480;18.556;2023-01-13T01:15:23;5.18;;;2.92;;
35188;SDS011;21762;54.480;18.556;2023-01-13T01:17:52;6.90;;;2.55;;
35188;SDS011;21762;54.480;18.556;2023-01-13T01:20:22;6.00;;;3.33;;
35188;SDS011;21762;54.480;18.556;2023-01-13T01:22:50;5.18;;;3.03;;
35188;SDS011;21762;54.480;18.556;2023-01-13T01:25:19;7.18;;;2.60;;
35188;SDS011;21762;54.480;18.556;2023-01-13T01:27:47;4.63;;;2.70;;
35188;SDS011;21762;54.480;18.556;2023-01-13T01:30:16;4.43;;;2.97;;
35188;SDS011;21762;54.480;18.556;2023-01-13T01:32:44;6.40;;;2.72;;
35188;SDS011;21762;54.480;18.556;2023-01-13T01:35:13;4.22;;;3.15;;
35188;SDS011;21762;54.480;18.556;2023-01-13T01:37:43;4.72;;;2.72;;
35188;SDS011;21762;54.480;18.556;2023-01-13T01:40:11;4.75;;;2.60;;
35188;SDS011;21762;54.480;18.556;2023-01-13T01:42:40;7.07;;;3.50;;
35188;SDS011;21762;54.480;18.556;2023-01-13T01:45:26;5.35;;;2.90;;
35188;SDS011;21762;54.480;18.556;2023-01-13T01:47:57;3.88;;;2.42;;
35188;SDS011;21762;54.480;18.556;2023-01-13T01:50:28;4.37;;;2.87;;
35188;SDS011;21762;54.480;18.556;2023-01-13T01:52:58;6.45;;;2.97;;
35188;SDS011;21762;54.480;18.556;2023-01-13T01:55:30;6.25;;;2.20;;
35188;SDS011;21762;54.480;18.556;2023-01-13T01:58:01;5.55;;;3.15;;
35188;SDS011;21762;54.480;18.556;2023-01-13T02:00:33;3.50;;;2.42;;
35188;SDS011;21762;54.480;18.556;2023-01-13T02:03:01;5.45;;;3.10;;
35188;SDS011;21762;54.480;18.556;2023-01-13T02:05:30;6.45;;;2.95;;
35188;SDS011;21762;54.480;18.556;2023-01-13T02:08:01;4.95;;;2.97;;
35188;SDS011;21762;54.480;18.556;2023-01-13T02:10:31;8.05;;;3.53;;
35188;SDS011;21762;54.480;18.556;2023-01-13T02:13:00;5.70;;;3.10;;
35188;SDS011;21762;54.480;18.556;2023-01-13T02:15:31;10.13;;;3.03;;
35188;SDS011;21762;54.480;18.556;2023-01-13T02:18:24;5.68;;;3.22;;
35188;SDS011;21762;54.480;18.556;2023-01-13T02:21:06;8.15;;;3.17;;
35188;SDS011;21762;54.480;18.556;2023-01-13T02:24:05;7.03;;;3.35;;
35188;SDS011;21762;54.480;18.556;2023-01-13T02:30:16;10.70;;;4.75;;
35188;SDS011;21762;54.480;18.556;2023-01-13T02:33:09;8.93;;;4.45;;
35188;SDS011;21762;54.480;18.556;2023-01-13T02:35:46;8.90;;;3.85;;
35188;SDS011;21762;54.480;18.556;2023-01-13T02:38:18;4.60;;;3.08;;
35188;SDS011;21762;54.480;18.556;2023-01-13T02:40:52;6.68;;;2.92;;
35188;SDS011;21762;54.480;18.556;2023-01-13T02:43:26;5.78;;;3.58;;
35188;SDS011;21762;54.480;18.556;2023-01-13T02:46:16;5.15;;;2.78;;
35188;SDS011;21762;54.480;18.556;2023-01-13T02:48:48;7.75;;;3.70;;
35188;SDS011;21762;54.480;18.556;2023-01-13T02:51:19;6.18;;;3.17;;
35188;SDS011;21762;54.480;18.556;2023-01-13T02:53:50;6.07;;;3.38;;
35188;SDS011;21762;54.480;18.556;2023-01-13T02:56:21;4.97;;;2.78;;
35188;SDS011;21762;54.480;18.556;2023-01-13T02:58:50;5.43;;;2.63;;
35188;SDS011;21762;54.480;18.556;2023-01-13T03:01:21;3.30;;;2.30;;
35188;SDS011;21762;54.480;18.556;2023-01-13T03:03:49;3.20;;;2.25;;
35188;SDS011;21762;54.480;18.556;2023-01-13T03:06:22;5.10;;;2.60;;
35188;SDS011;21762;54.480;18.556;2023-01-13T03:09:00;2.83;;;2.50;;
35188;SDS011;21762;54.480;18.556;2023-01-13T03:11:32;4.47;;;2.15;;
35188;SDS011;21762;54.480;18.556;2023-01-13T03:14:08;3.33;;;2.08;;
35188;SDS011;21762;54.480;18.556;2023-01-13T03:16:47;3.13;;;2.22;;
35188;SDS011;21762;54.480;18.556;2023-01-13T03:19:28;2.72;;;1.92;;
35188;SDS011;21762;54.480;18.556;2023-01-13T03:21:58;2.28;;;1.67;;
35188;SDS011;21762;54.480;18.556;2023-01-13T03:24:32;4.35;;;2.10;;
35188;SDS011;21762;54.480;18.556;2023-01-13T03:27:03;2.78;;;2.40;;
35188;SDS011;21762;54.480;18.556;2023-01-13T03:29:35;2.92;;;1.95;;
35188;SDS011;21762;54.480;18.556;2023-01-13T03:32:08;2.78;;;2.15;;
35188;SDS011;21762;54.480;18.556;2023-01-13T03:34:40;3.10;;;2.03;;
35188;SDS011;21762;54.480;18.556;2023-01-13T03:39:41;5.70;;;2.65;;
35188;SDS011;21762;54.480;18.556;2023-01-13T03:42:12;4.68;;;2.38;;
35188;SDS011;21762;54.480;18.556;2023-01-13T03:44:45;4.07;;;2.10;;
35188;SDS011;21762;54.480;18.556;2023-01-13T03:47:17;2.92;;;1.92;;
35188;SDS011;21762;54.480;18.556;2023-01-13T03:49:50;3.85;;;1.73;;
35188;SDS011;21762;54.480;18.556;2023-01-13T03:52:21;2.95;;;1.75;;
35188;SDS011;21762;54.480;18.556;2023-01-13T03:54:53;2.75;;;1.73;;
35188;SDS011;21762;54.480;18.556;2023-01-13T03:57:25;3.80;;;1.90;;
35188;SDS011;21762;54.480;18.556;2023-01-13T03:59:58;4.63;;;1.45;;
35188;SDS011;21762;54.480;18.556;2023-01-13T04:02:42;3.42;;;1.20;;
35188;SDS011;21762;54.480;18.556;2023-01-13T04:05:15;3.15;;;1.35;;
35188;SDS011;21762;54.480;18.556;2023-01-13T04:07:45;1.48;;;1.17;;
35188;SDS011;21762;54.480;18.556;2023-01-13T04:10:18;1.45;;;1.20;;
35188;SDS011;21762;54.480;18.556;2023-01-13T04:12:50;1.42;;;1.30;;
35188;SDS011;21762;54.480;18.556;2023-01-13T04:15:31;1.25;;;1.10;;
35188;SDS011;21762;54.480;18.556;2023-01-13T04:18:07;2.30;;;1.10;;
35188;SDS011;21762;54.480;18.556;2023-01-13T04:20:37;2.83;;;1.10;;
35188;SDS011;21762;54.480;18.556;2023-01-13T04:23:06;1.50;;;0.98;;
35188;SDS011;21762;54.480;18.556;2023-01-13T04:25:35;1.33;;;0.95;;
35188;SDS011;21762;54.480;18.556;2023-01-13T04:28:04;1.27;;;1.02;;
35188;SDS011;21762;54.480;18.556;2023-01-13T04:30:33;3.97;;;1.30;;
35188;SDS011;21762;54.480;18.556;2023-01-13T04:33:03;1.35;;;1.10;;
35188;SDS011;21762;54.480;18.556;2023-01-13T04:35:32;5.05;;;1.40;;
35188;SDS011;21762;54.480;18.556;2023-01-13T04:38:01;1.67;;;1.35;;
35188;SDS011;21762;54.480;18.556;2023-01-13T04:40:30;2.05;;;0.95;;
35188;SDS011;21762;54.480;18.556;2023-01-13T04:42:58;1.77;;;1.30;;
35188;SDS011;21762;54.480;18.556;2023-01-13T04:45:26;0.85;;;0.77;;
35188;SDS011;21762;54.480;18.556;2023-01-13T04:47:55;2.25;;;1.13;;
35188;SDS011;21762;54.480;18.556;2023-01-13T04:50:25;1.88;;;0.85;;
35188;SDS011;21762;54.480;18.556;2023-01-13T04:52:53;1.23;;;0.85;;
35188;SDS011;21762;54.480;18.556;2023-01-13T04:55:23;3.58;;;1.10;;
35188;SDS011;21762;54.480;18.556;2023-01-13T04:57:51;1.48;;;0.90;;
35188;SDS011;21762;54.480;18.556;2023-01-13T05:00:20;1.85;;;1.30;;
35188;SDS011;21762;54.480;18.556;2023-01-13T05:02:49;0.73;;;0.70;;
35188;SDS011;21762;54.480;18.556;2023-01-13T05:05:18;2.08;;;0.70;;
35188;SDS011;21762;54.480;18.556;2023-01-13T05:07:48;2.85;;;0.90;;
35188;SDS011;21762;54.480;18.556;2023-01-13T05:10:16;2.10;;;1.10;;
35188;SDS011;21762;54.480;18.556;2023-01-13T05:12:45;1.67;;;1.15;;
35188;SDS011;21762;54.480;18.556;2023-01-13T05:15:31;1.00;;;0.90;;
35188;SDS011;21762;54.480;18.556;2023-01-13T05:18:16;0.95;;;0.90;;
35188;SDS011;21762;54.480;18.556;2023-01-13T05:20:46;1.10;;;1.00;;
35188;SDS011;21762;54.480;18.556;2023-01-13T05:23:15;2.97;;;1.05;;
35188;SDS011;21762;54.480;18.556;2023-01-13T05:26:01;1.27;;;1.00;;
35188;SDS011;21762;54.480;18.556;2023-01-13T05:28:30;3.22;;;1.23;;
35188;SDS011;21762;54.480;18.556;2023-01-13T05:30:59;1.65;;;1.00;;
35188;SDS011;21762;54.480;18.556;2023-01-13T05:33:28;2.25;;;1.10;;
35188;SDS011;21762;54.480;18.556;2023-01-13T05:36:00;7.00;;;1.33;;
35188;SDS011;21762;54.480;18.556;2023-01-13T05:38:30;6.45;;;2.13;;
35188;SDS011;21762;54.480;18.556;2023-01-13T05:40:59;3.10;;;1.38;;
35188;SDS011;21762;54.480;18.556;2023-01-13T05:43:45;3.65;;;2.13;;
35188;SDS011;21762;54.480;18.556;2023-01-13T05:46:14;1.73;;;1.10;;
35188;SDS011;21762;54.480;18.556;2023-01-13T05:48:43;2.28;;;0.90;;
35188;SDS011;21762;54.480;18.556;2023-01-13T05:51:12;1.30;;;1.00;;
35188;SDS011;21762;54.480;18.556;2023-01-13T05:53:42;1.40;;;0.95;;
35188;SDS011;21762;54.480;18.556;2023-01-13T05:56:11;1.17;;;0.70;;
35188;SDS011;21762;54.480;18.556;2023-01-13T05:58:39;0.80;;;0.60;;
35188;SDS011;21762;54.480;18.556;2023-01-13T06:01:08;0.90;;;0.60;;
35188;SDS011;21762;54.480;18.556;2023-01-13T06:03:36;1.30;;;0.98;;
35188;SDS011;21762;54.480;18.556;2023-01-13T06:06:05;0.95;;;0.80;;
35188;SDS011;21762;54.480;18.556;2023-01-13T06:08:34;1.60;;;0.80;;
35188;SDS011;21762;54.480;18.556;2023-01-13T06:11:06;1.45;;;0.90;;
35188;SDS011;21762;54.480;18.556;2023-01-13T06:13:35;1.05;;;0.90;;
35188;SDS011;21762;54.480;18.556;2023-01-13T06:16:03;0.98;;;0.80;;
35188;SDS011;21762;54.480;18.556;2023-01-13T06:18:32;1.67;;;0.88;;
35188;SDS011;21762;54.480;18.556;2023-01-13T06:21:00;0.82;;;0.65;;
35188;SDS011;21762;54.480;18.556;2023-01-13T06:23:29;2.13;;;0.93;;
35188;SDS011;21762;54.480;18.556;2023-01-13T06:26:03;2.47;;;0.85;;
35188;SDS011;21762;54.480;18.556;2023-01-13T06:28:35;1.00;;;0.90;;
35188;SDS011;21762;54.480;18.556;2023-01-13T06:31:04;1.23;;;0.90;;
35188;SDS011;21762;54.480;18.556;2023-01-13T06:33:35;1.90;;;0.80;;
35188;SDS011;21762;54.480;18.556;2023-01-13T06:36:05;1.73;;;1.10;;
35188;SDS011;21762;54.480;18.556;2023-01-13T06:38:37;1.75;;;0.88;;
35188;SDS011;21762;54.480;18.556;2023-01-13T06:41:06;1.77;;;1.00;;
35188;SDS011;21762;54.480;18.556;2023-01-13T06:43:36;1.55;;;0.90;;
35188;SDS011;21762;54.480;18.556;2023-01-13T06:46:04;1.45;;;1.05;;
35188;SDS011;21762;54.480;18.556;2023-01-13T06:48:33;1.33;;;1.00;;
35188;SDS011;21762;54.480;18.556;2023-01-13T06:51:01;1.98;;;1.30;;
35188;SDS011;21762;54.480;18.556;2023-01-13T06:53:30;2.70;;;1.20;;
35188;SDS011;21762;54.480;18.556;2023-01-13T06:55:59;2.38;;;1.25;;
35188;SDS011;21762;54.480;18.556;2023-01-13T06:58:27;3.72;;;2.20;;
35188;SDS011;21762;54.480;18.556;2023-01-13T07:00:59;5.18;;;1.90;;
35188;SDS011;21762;54.480;18.556;2023-01-13T07:03:28;3.35;;;1.83;;
35188;SDS011;21762;54.480;18.556;2023-01-13T07:05:57;3.17;;;1.92;;
35188;SDS011;21762;54.480;18.556;2023-01-13T07:08:27;4.07;;;1.67;;
35188;SDS011;21762;54.480;18.556;2023-01-13T07:10:56;4.45;;;2.00;;
35188;SDS011;21762;54.480;18.556;2023-01-13T07:13:24;4.13;;;2.08;;
35188;SDS011;21762;54.480;18.556;2023-01-13T07:16:12;8.90;;;1.88;;
35188;SDS011;21762;54.480;18.556;2023-01-13T07:18:40;4.50;;;2.42;;
35188;SDS011;21762;54.480;18.556;2023-01-13T07:21:10;9.95;;;3.03;;
35188;SDS011;21762;54.480;18.556;2023-01-13T07:23:39;10.68;;;3.50;;
35188;SDS011;21762;54.480;18.556;2023-01-13T07:26:08;11.05;;;3.15;;
35188;SDS011;21762;54.480;18.556;2023-01-13T07:28:37;7.40;;;2.97;;
35188;SDS011;21762;54.480;18.556;2023-01-13T07:31:13;5.20;;;2.28;;
35188;SDS011;21762;54.480;18.556;2023-01-13T07:33:42;3.85;;;1.80;;
35188;SDS011;21762;54.480;18.556;2023-01-13T07:36:11;9.07;;;3.67;;
35188;SDS011;21762;54.480;18.556;2023-01-13T07:38:40;3.47;;;1.40;;
35188;SDS011;21762;54.480;18.556;2023-01-13T07:41:11;6.63;;;1.60;;
35188;SDS011;21762;54.480;18.556;2023-01-13T07:43:57;2.40;;;1.27;;
35188;SDS011;21762;54.480;18.556;2023-01-13T07:46:27;1.42;;;1.10;;
35188;SDS011;21762;54.480;18.556;2023-01-13T07:48:56;1.85;;;1.10;;
35188;SDS011;21762;54.480;18.556;2023-01-13T07:51:24;3.50;;;1.27;;
35188;SDS011;21762;54.480;18.556;2023-01-13T07:53:53;1.30;;;1.00;;
35188;SDS011;21762;54.480;18.556;2023-01-13T07:56:21;2.05;;;1.23;;
35188;SDS011;21762;54.480;18.556;2023-01-13T07:58:50;1.55;;;1.10;;
35188;SDS011;21762;54.480;18.556;2023-01-13T08:01:19;2.08;;;1.30;;
35188;SDS011;21762;54.480;18.556;2023-01-13T08:03:49;4.65;;;1.23;;
35188;SDS011;21762;54.480;18.556;2023-01-13T08:06:18;1.50;;;1.00;;
35188;SDS011;21762;54.480;18.556;2023-01-13T08:08:46;4.00;;;1.45;;
35188;SDS011;21762;54.480;18.556;2023-01-13T08:11:15;2.35;;;1.42;;
35188;SDS011;21762;54.480;18.556;2023-01-13T08:13:44;3.72;;;1.67;;
35188;SDS011;21762;54.480;18.556;2023-01-13T08:16:13;3.10;;;1.45;;
35188;SDS011;21762;54.480;18.556;2023-01-13T08:18:42;3.45;;;1.73;;
35188;SDS011;21762;54.480;18.556;2023-01-13T08:21:12;2.88;;;1.77;;
35188;SDS011;21762;54.480;18.556;2023-01-13T08:23:42;3.42;;;1.67;;
35188;SDS011;21762;54.480;18.556;2023-01-13T08:26:12;3.20;;;1.42;;
35188;SDS011;21762;54.480;18.556;2023-01-13T08:28:43;2.80;;;2.00;;
35188;SDS011;21762;54.480;18.556;2023-01-13T08:31:13;3.85;;;1.92;;
35188;SDS011;21762;54.480;18.556;2023-01-13T08:33:43;3.33;;;1.90;;
35188;SDS011;21762;54.480;18.556;2023-01-13T08:36:13;4.28;;;1.70;;
35188;SDS011;21762;54.480;18.556;2023-01-13T08:38:44;2.30;;;1.80;;
35188;SDS011;21762;54.480;18.556;2023-01-13T08:41:14;2.72;;;1.50;;
35188;SDS011;21762;54.480;18.556;2023-01-13T08:44:04;2.08;;;1.33;;
35188;SDS011;21762;54.480;18.556;2023-01-13T08:46:35;2.65;;;1.85;;
35188;SDS011;21762;54.480;18.556;2023-01-13T08:49:04;3.30;;;1.63;;
35188;SDS011;21762;54.480;18.556;2023-01-13T08:51:34;3.92;;;1.45;;
35188;SDS011;21762;54.480;18.556;2023-01-13T08:54:02;2.80;;;1.42;;
35188;SDS011;21762;54.480;18.556;2023-01-13T08:56:31;6.07;;;1.60;;
35188;SDS011;21762;54.480;18.556;2023-01-13T08:59:01;2.60;;;1.52;;
35188;SDS011;21762;54.480;18.556;2023-01-13T09:01:30;2.03;;;1.63;;
35188;SDS011;21762;54.480;18.556;2023-01-13T09:03:59;3.15;;;1.90;;
35188;SDS011;21762;54.480;18.556;2023-01-13T09:06:28;2.65;;;1.73;;
35188;SDS011;21762;54.480;18.556;2023-01-13T09:08:58;2.15;;;1.85;;
35188;SDS011;21762;54.480;18.556;2023-01-13T09:11:29;6.35;;;2.63;;
35188;SDS011;21762;54.480;18.556;2023-01-13T09:14:17;5.88;;;2.03;;
35188;SDS011;21762;54.480;18.556;2023-01-13T09:16:47;3.50;;;1.60;;
35188;SDS011;21762;54.480;18.556;2023-01-13T09:19:16;2.97;;;2.05;;
35188;SDS011;21762;54.480;18.556;2023-01-13T09:21:45;6.10;;;2.40;;
35188;SDS011;21762;54.480;18.556;2023-01-13T09:24:16;4.68;;;2.20;;
35188;SDS011;21762;54.480;18.556;2023-01-13T09:26:44;4.40;;;2.03;;
35188;SDS011;21762;54.480;18.556;2023-01-13T09:29:13;2.55;;;1.77;;
35188;SDS011;21762;54.480;18.556;2023-01-13T09:31:42;3.08;;;1.95;;
35188;SDS011;21762;54.480;18.556;2023-01-13T09:34:12;3.25;;;1.77;;
35188;SDS011;21762;54.480;18.556;2023-01-13T09:36:59;2.70;;;2.15;;
35188;SDS011;21762;54.480;18.556;2023-01-13T09:39:29;3.67;;;1.92;;
35188;SDS011;21762;54.480;18.556;2023-01-13T09:42:00;3.20;;;1.98;;
35188;SDS011;21762;54.480;18.556;2023-01-13T09:44:49;2.80;;;1.88;;
35188;SDS011;21762;54.480;18.556;2023-01-13T09:47:23;3.80;;;2.08;;
35188;SDS011;21762;54.480;18.556;2023-01-13T09:49:57;5.47;;;2.70;;
35188;SDS011;21762;54.480;18.556;2023-01-13T09:52:29;4.50;;;1.95;;
35188;SDS011;21762;54.480;18.556;2023-01-13T09:55:02;3.53;;;2.35;;
35188;SDS011;21762;54.480;18.556;2023-01-13T09:57:33;2.80;;;1.45;;
35188;SDS011;21762;54.480;18.556;2023-01-13T10:00:08;4.13;;;1.92;;
35188;SDS011;21762;54.480;18.556;2023-01-13T10:02:43;2.35;;;1.67;;
35188;SDS011;21762;54.480;18.556;2023-01-13T10:05:21;4.88;;;1.70;;
35188;SDS011;21762;54.480;18.556;2023-01-13T10:07:58;5.25;;;1.35;;
35188;SDS011;21762;54.480;18.556;2023-01-13T10:10:35;3.30;;;0.70;;
35188;SDS011;21762;54.480;18.556;2023-01-13T10:13:12;3.58;;;0.57;;
35188;SDS011;21762;54.480;18.556;2023-01-13T10:15:44;1.52;;;0.47;;
35188;SDS011;21762;54.480;18.556;2023-01-13T10:18:32;1.85;;;0.50;;
35188;SDS011;21762;54.480;18.556;2023-01-13T10:21:06;2.72;;;1.23;;
35188;SDS011;21762;54.480;18.556;2023-01-13T10:23:49;2.78;;;0.90;;
35188;SDS011;21762;54.480;18.556;2023-01-13T10:26:28;2.83;;;1.15;;
35188;SDS011;21762;54.480;18.556;2023-01-13T10:29:01;6.47;;;1.55;;
35188;SDS011;21762;54.480;18.556;2023-01-13T10:31:30;4.47;;;1.60;;
35188;SDS011;21762;54.480;18.556;2023-01-13T10:33:59;4.90;;;1.35;;
35188;SDS011;21762;54.480;18.556;2023-01-13T10:36:29;2.33;;;1.13;;
35188;SDS011;21762;54.480;18.556;2023-01-13T10:39:05;5.00;;;1.40;;
35188;SDS011;21762;54.480;18.556;2023-01-13T10:41:37;2.65;;;1.40;;
35188;SDS011;21762;54.480;18.556;2023-01-13T10:44:14;6.70;;;1.95;;
35188;SDS011;21762;54.480;18.556;2023-01-13T10:46:53;2.63;;;1.73;;
35188;SDS011;21762;54.480;18.556;2023-01-13T10:49:27;4.35;;;1.80;;
35188;SDS011;21762;54.480;18.556;2023-01-13T10:51:59;2.65;;;1.70;;
35188;SDS011;21762;54.480;18.556;2023-01-13T10:54:28;2.53;;;1.63;;
35188;SDS011;21762;54.480;18.556;2023-01-13T10:57:13;3.25;;;2.05;;
35188;SDS011;21762;54.480;18.556;2023-01-13T10:59:45;3.60;;;1.88;;
35188;SDS011;21762;54.480;18.556;2023-01-13T11:02:24;2.90;;;1.70;;
35188;SDS011;21762;54.480;18.556;2023-01-13T11:04:59;3.67;;;1.70;;
35188;SDS011;21762;54.480;18.556;2023-01-13T11:07:31;8.40;;;1.77;;
35188;SDS011;21762;54.480;18.556;2023-01-13T11:10:03;2.60;;;1.63;;
35188;SDS011;21762;54.480;18.556;2023-01-13T11:12:41;5.55;;;1.83;;
35188;SDS011;21762;54.480;18.556;2023-01-13T11:15:14;2.83;;;1.08;;
35188;SDS011;21762;54.480;18.556;2023-01-13T11:17:45;3.58;;;1.40;;
35188;SDS011;21762;54.480;18.556;2023-01-13T11:20:18;3.05;;;2.22;;
35188;SDS011;21762;54.480;18.556;2023-01-13T11:22:48;4.50;;;1.27;;
35188;SDS011;21762;54.480;18.556;2023-01-13T11:25:19;3.30;;;1.73;;
35188;SDS011;21762;54.480;18.556;2023-01-13T11:27:54;2.40;;;1.35;;
35188;SDS011;21762;54.480;18.556;2023-01-13T11:30:27;5.60;;;1.75;;
35188;SDS011;21762;54.480;18.556;2023-01-13T11:33:03;2.38;;;1.25;;
35188;SDS011;21762;54.480;18.556;2023-01-13T11:35:40;2.03;;;1.10;;
35188;SDS011;21762;54.480;18.556;2023-01-13T11:38:12;2.50;;;0.90;;
35188;SDS011;21762;54.480;18.556;2023-01-13T11:40:45;3.53;;;1.05;;
35188;SDS011;21762;54.480;18.556;2023-01-13T11:43:20;1.10;;;0.90;;
35188;SDS011;21762;54.480;18.556;2023-01-13T11:45:54;1.85;;;0.80;;
35188;SDS011;21762;54.480;18.556;2023-01-13T11:48:25;1.67;;;0.88;;
35188;SDS011;21762;54.480;18.556;2023-01-13T11:50:57;2.78;;;1.38;;
35188;SDS011;21762;54.480;18.556;2023-01-13T11:53:38;3.38;;;0.98;;
35188;SDS011;21762;54.480;18.556;2023-01-13T11:56:25;3.25;;;1.20;;
35188;SDS011;21762;54.480;18.556;2023-01-13T11:59:11;3.53;;;1.00;;
35188;SDS011;21762;54.480;18.556;2023-01-13T12:02:02;3.35;;;1.45;;
35188;SDS011;21762;54.480;18.556;2023-01-13T12:04:51;3.30;;;1.60;;
35188;SDS011;21762;54.480;18.556;2023-01-13T12:07:26;2.38;;;1.30;;
35188;SDS011;21762;54.480;18.556;2023-01-13T12:10:02;2.38;;;1.52;;
35188;SDS011;21762;54.480;18.556;2023-01-13T12:12:42;2.38;;;1.40;;
35188;SDS011;21762;54.480;18.556;2023-01-13T12:18:10;4.90;;;1.77;;
35188;SDS011;21762;54.480;18.556;2023-01-13T12:20:48;2.67;;;1.30;;
35188;SDS011;21762;54.480;18.556;2023-01-13T12:23:23;3.78;;;1.48;;
35188;SDS011;21762;54.480;18.556;2023-01-13T12:25:55;3.13;;;1.40;;
35188;SDS011;21762;54.480;18.556;2023-01-13T12:28:27;5.57;;;2.20;;
35188;SDS011;21762;54.480;18.556;2023-01-13T12:31:01;3.83;;;2.00;;
35188;SDS011;21762;54.480;18.556;2023-01-13T12:33:33;2.67;;;1.60;;
35188;SDS011;21762;54.480;18.556;2023-01-13T12:36:12;4.15;;;1.55;;
35188;SDS011;21762;54.480;18.556;2023-01-13T12:38:43;4.07;;;1.50;;
35188;SDS011;21762;54.480;18.556;2023-01-13T12:41:15;2.07;;;0.87;;
35188;SDS011;21762;54.480;18.556;2023-01-13T12:43:51;2.33;;;1.17;;
35188;SDS011;21762;54.480;18.556;2023-01-13T12:46:46;5.68;;;1.33;;
35188;SDS011;21762;54.480;18.556;2023-01-13T12:49:23;2.28;;;1.40;;
35188;SDS011;21762;54.480;18.556;2023-01-13T12:51:59;4.50;;;1.42;;
35188;SDS011;21762;54.480;18.556;2023-01-13T12:55:06;4.40;;;1.20;;
35188;SDS011;21762;54.480;18.556;2023-01-13T12:57:36;5.75;;;1.20;;
35188;SDS011;21762;54.480;18.556;2023-01-13T13:00:13;3.45;;;1.17;;
35188;SDS011;21762;54.480;18.556;2023-01-13T13:03:12;3.13;;;1.23;;
35188;SDS011;21762;54.480;18.556;2023-01-13T13:05:53;3.30;;;1.60;;
35188;SDS011;21762;54.480;18.556;2023-01-13T13:08:25;4.40;;;1.30;;
35188;SDS011;21762;54.480;18.556;2023-01-13T13:17:39;2.40;;;1.40;;
35188;SDS011;21762;54.480;18.556;2023-01-13T13:23:28;8.88;;;1.77;;
35188;SDS011;21762;54.480;18.556;2023-01-13T13:26:10;4.13;;;1.45;;
35188;SDS011;21762;54.480;18.556;2023-01-13T13:28:48;3.20;;;1.50;;
35188;SDS011;21762;54.480;18.556;2023-01-13T13:31:26;5.88;;;2.00;;
35188;SDS011;21762;54.480;18.556;2023-01-13T13:34:05;6.00;;;1.73;;
35188;SDS011;21762;54.480;18.556;2023-01-13T13:36:52;2.67;;;1.55;;
35188;SDS011;21762;54.480;18.556;2023-01-13T13:39:30;3.17;;;1.80;;
35188;SDS011;21762;54.480;18.556;2023-01-13T13:42:18;2.97;;;1.17;;
35188;SDS011;21762;54.480;18.556;2023-01-13T13:45:11;3.45;;;1.15;;
35188;SDS011;21762;54.480;18.556;2023-01-13T13:50:48;4.05;;;1.20;;
35188;SDS011;21762;54.480;18.556;2023-01-13T13:53:21;6.53;;;1.35;;
35188;SDS011;21762;54.480;18.556;2023-01-13T13:55:54;3.42;;;1.50;;
35188;SDS011;21762;54.480;18.556;2023-01-13T13:58:26;3.47;;;1.20;;
35188;SDS011;21762;54.480;18.556;2023-01-13T14:00:57;2.97;;;1.30;;
35188;SDS011;21762;54.480;18.556;2023-01-13T14:03:28;4.78;;;1.30;;
35188;SDS011;21762;54.480;18.556;2023-01-13T14:06:00;3.80;;;1.40;;
35188;SDS011;21762;54.480;18.556;2023-01-13T14:11:03;5.35;;;1.50;;
35188;SDS011;21762;54.480;18.556;2023-01-13T14:13:59;6.57;;;1.75;;
35188;SDS011;21762;54.480;18.556;2023-01-13T14:16:28;4.82;;;1.77;;
35188;SDS011;21762;54.480;18.556;2023-01-13T14:18:58;4.55;;;2.05;;
35188;SDS011;21762;54.480;18.556;2023-01-13T14:21:27;3.08;;;1.90;;
35188;SDS011;21762;54.480;18.556;2023-01-13T14:23:57;4.20;;;1.77;;
35188;SDS011;21762;54.480;18.556;2023-01-13T14:26:30;4.30;;;2.13;;
35188;SDS011;21762;54.480;18.556;2023-01-13T14:28:59;4.35;;;1.83;;
35188;SDS011;21762;54.480;18.556;2023-01-13T14:31:29;3.53;;;2.00;;
35188;SDS011;21762;54.480;18.556;2023-01-13T14:34:00;4.75;;;2.03;;
35188;SDS011;21762;54.480;18.556;2023-01-13T14:36:34;4.93;;;2.05;;
35188;SDS011;21762;54.480;18.556;2023-01-13T14:39:22;6.03;;;2.15;;
35188;SDS011;21762;54.480;18.556;2023-01-13T14:41:54;6.57;;;2.05;;
35188;SDS011;21762;54.480;18.556;2023-01-13T14:44:24;4.47;;;1.85;;
35188;SDS011;21762;54.480;18.556;2023-01-13T14:46:54;8.48;;;2.40;;
35188;SDS011;21762;54.480;18.556;2023-01-13T14:49:25;7.25;;;2.13;;
35188;SDS011;21762;54.480;18.556;2023-01-13T14:52:03;6.32;;;2.25;;
35188;SDS011;21762;54.480;18.556;2023-01-13T14:54:47;6.65;;;2.35;;
35188;SDS011;21762;54.480;18.556;2023-01-13T14:57:24;7.38;;;2.22;;
35188;SDS011;21762;54.480;18.556;2023-01-13T15:00:00;5.38;;;2.20;;
35188;SDS011;21762;54.480;18.556;2023-01-13T15:02:37;7.60;;;2.38;;
35188;SDS011;21762;54.480;18.556;2023-01-13T15:10:57;7.78;;;2.13;;
35188;SDS011;21762;54.480;18.556;2023-01-13T15:13:32;6.65;;;2.33;;
35188;SDS011;21762;54.480;18.556;2023-01-13T15:16:12;6.35;;;2.20;;
35188;SDS011;21762;54.480;18.556;2023-01-13T15:18:42;9.27;;;2.88;;
35188;SDS011;21762;54.480;18.556;2023-01-13T15:21:11;5.93;;;2.60;;
35188;SDS011;21762;54.480;18.556;2023-01-13T15:23:41;6.63;;;2.20;;
35188;SDS011;21762;54.480;18.556;2023-01-13T15:26:17;7.95;;;2.55;;
35188;SDS011;21762;54.480;18.556;2023-01-13T15:28:49;6.00;;;2.38;;
35188;SDS011;21762;54.480;18.556;2023-01-13T15:31:18;6.40;;;2.28;;
35188;SDS011;21762;54.480;18.556;2023-01-13T15:33:47;8.00;;;2.45;;
35188;SDS011;21762;54.480;18.556;2023-01-13T15:36:23;7.38;;;2.35;;